EW7835 Weather Reports


Display with metric or nautical units.
time (UTC)temp
F
wind
direction
speed
MPH
gust
MPH
rain 1hr
in
rain 24hr
in
rain mn
in
humidity
%
barometer
mb
20181016000016 54 296 9.0 21.0 0.00 0.00 0.00 96 1005.1
20181015234518 54 277 14.0 24.0 0.00 0.00 0.00 97 1004.7
20181015233049 56 297 16.0 29.0 0.00 0.00 0.00 98 1004.5
20181015231508 55 260 7.0 11.0 0.00 0.00 0.00 98 1004.3
20181015230008 55 313 4.0 5.0 0.00 0.00 0.00 98 1003.9
20181015223005 55 192 0.0 3.0 0.00 0.00 0.00 98 1003.8
20181015221504 55 156 1.0 5.0 0.00 0.00 0.00 98 1003.8
20181015214636 55 146 4.0 8.0 0.00 0.00 0.00 98 1004.0
20181015213111 55 154 2.0 7.0 0.00 0.00 0.00 98 1004.4
20181015211713 55 143 4.0 7.0 0.00 0.00 0.00 98 1004.8
20181015210117 54 160 2.0 5.0 0.00 0.00 0.00 98 1005.3
20181015204614 54 161 0.0 0.0 0.00 0.00 0.00 98 1005.7
20181015203102 53 161 0.0 0.0 0.00 0.00 0.00 98 1005.8
20181015201631 54 161 0.0 0.0 0.00 0.00 0.00 98 1006.1
20181015200121 53 161 0.0 3.0 0.00 0.00 0.00 98 1006.3
20181015194619 54 161 0.0 0.0 0.00 0.00 0.00 98 1006.7
20181015193117 54 161 0.0 1.0 0.00 0.00 0.00 98 1006.8
20181015190046 53 161 1.0 4.0 0.00 0.00 0.00 98 1007.3
20181015184535 53 161 1.0 4.0 0.00 0.00 0.00 98 1007.3
20181015183041 52 161 2.0 4.0 0.00 0.00 0.00 98 1007.5
20181015181552 52 155 2.0 5.0 0.00 0.00 0.00 98 1007.8
20181015180043 51 153 2.0 6.0 0.00 0.00 0.00 98 1007.8
20181015174559 51 158 1.0 7.0 0.00 0.00 0.00 98 1008.3
20181015173047 50 154 2.0 5.0 0.00 0.00 0.00 98 1008.5
20181015171543 50 160 3.0 6.0 0.00 0.00 0.00 98 1009.0
20181015170025 49 127 0.0 4.0 0.00 0.00 0.00 98 1009.4
20181015164542 48 158 4.0 7.0 0.00 0.00 0.00 98 1009.6
20181015163013 48 127 3.0 7.0 0.00 0.00 0.00 98 1010.0
20181015161507 47 119 4.0 10.0 0.00 0.00 0.00 98 1010.3
20181015160006 47 123 4.0 7.0 0.00 0.00 0.00 98 1010.6
20181015154645 46 130 3.0 8.0 0.00 0.00 0.00 98 1010.9
20181015153157 46 142 4.0 7.0 0.00 0.00 0.00 98 1011.3
20181015151619 45 142 5.0 8.0 0.00 0.00 0.00 98 1011.4
20181015150145 45 138 5.0 9.0 0.00 0.00 0.00 98 1011.7
20181015144655 45 139 4.0 8.0 0.00 0.00 0.00 98 1012.1
20181015143240 44 95 4.0 7.0 0.00 0.00 0.00 98 1012.3
20181015141608 44 120 5.0 8.0 0.00 0.00 0.00 98 1012.7
20181015140134 44 157 4.0 9.0 0.00 0.00 0.00 98 1012.9
20181015134645 44 120 6.0 10.0 0.00 0.00 0.00 98 1013.0
20181015133105 43 136 4.0 9.0 0.00 0.00 0.00 98 1013.2
20181015131627 43 134 6.0 10.0 0.00 0.00 0.00 98 1013.5
20181015130043 42 107 3.0 8.0 0.00 0.00 0.00 97 1013.7
20181015124617 42 101 3.0 7.0 0.00 0.00 0.00 98 1013.9
20181015123115 41 90 4.0 9.0 0.00 0.00 0.00 97 1014.2
20181015121603 41 103 4.0 8.0 0.00 0.00 0.00 97 1014.5
20181015120054 41 98 2.0 7.0 0.00 0.00 0.00 97 1014.9
20181015114623 41 89 2.0 7.0 0.00 0.00 0.00 97 1014.9
20181015113120 41 117 4.0 7.0 0.00 0.00 0.00 97 1014.9
20181015111620 41 110 3.0 8.0 0.00 0.00 0.00 97 1014.9
20181015110046 41 119 2.0 7.0 0.00 0.00 0.00 97 1015.2
20181015104623 40 350 2.0 4.0 0.00 0.00 0.00 97 1015.6
20181015103023 39 333 1.0 3.0 0.00 0.00 0.00 97 1015.8
20181015101541 39 333 0.0 1.0 0.00 0.00 0.00 97 1015.9
20181015100023 39 333 2.0 4.0 0.00 0.00 0.00 96 1015.8
20181015094525 39 326 1.0 3.0 0.00 0.00 0.00 96 1016.3
20181015093024 40 326 1.0 3.0 0.00 0.00 0.00 96 1016.4
20181015091521 40 326 2.0 4.0 0.00 0.00 0.00 96 1016.7
20181015090034 40 325 2.0 4.0 0.00 0.00 0.00 96 1016.7
20181015084525 40 325 0.0 0.0 0.00 0.00 0.00 96 1016.8
20181015083011 40 325 0.0 0.0 0.00 0.00 0.00 96 1016.7
20181015081512 39 325 0.0 1.0 0.00 0.00 0.00 96 1016.7
20181015080007 40 325 0.0 0.0 0.00 0.00 0.00 96 1017.0
20181015074504 40 325 0.0 0.0 0.00 0.00 0.00 95 1017.1
20181015073116 40 325 0.0 0.0 0.00 0.00 0.00 95 1017.2
20181015071744 40 325 0.0 0.0 0.00 0.00 0.00 95 1017.3
20181015070144 40 325 0.0 0.0 0.00 0.00 0.00 95 1017.3
20181015064634 41 325 0.0 0.0 0.00 0.00 0.00 94 1017.6
20181015063122 41 325 0.0 0.0 0.00 0.00 0.00 94 1017.8
20181015061623 41 325 0.0 2.0 0.00 0.00 0.00 94 1018.1
20181015060128 41 325 0.0 1.0 0.00 0.00 0.00 94 1018.3
20181015054554 41 325 0.0 1.0 0.00 0.00 0.00 93 1018.2
20181015053117 41 325 0.0 0.0 0.00 0.00 0.00 93 1018.1
20181015051605 42 325 0.0 0.0 0.00 0.00 0.00 91 1018.2
20181015050050 43 325 0.0 0.0 0.00 0.00 0.00 89 1018.3
20181015044630 44 325 0.0 0.0 0.00 0.00 0.00 89 1018.2
20181015043117 44 325 0.0 0.0 0.00 0.00 0.00 89 1018.7
20181015041556 44 325 0.0 0.0 0.00 0.00 0.00 87 1018.5
20181015040056 44 325 0.0 0.0 0.00 0.00 0.00 87 1018.6
20181015034550 44 325 0.0 0.0 0.00 0.00 0.00 88 1018.4
20181015033052 44 325 0.0 0.0 0.00 0.00 0.00 88 1018.6
20181015031532 44 325 0.0 0.0 0.00 0.00 0.00 88 1018.6
20181015030049 44 325 0.0 0.0 0.00 0.00 0.00 88 1018.7
20181015024544 44 325 0.0 1.0 0.00 0.00 0.00 87 1018.8
20181015023125 45 325 0.0 3.0 0.00 0.00 0.00 86 1018.7
20181015021543 45 309 3.0 4.0 0.00 0.00 0.00 85 1018.5
20181015020044 46 267 0.0 0.0 0.00 0.00 0.00 83 1018.5
20181015014531 46 267 0.0 0.0 0.00 0.00 0.00 83 1018.4
20181015013032 46 267 0.0 0.0 0.00 0.00 0.00 82 1018.4
20181015011537 46 267 0.0 0.0 0.00 0.00 0.00 82 1018.2
20181015010043 46 267 0.0 0.0 0.00 0.00 0.00 82 1018.3
20181015004541 46 267 0.0 0.0 0.00 0.00 0.00 81 1018.1
20181015003057 47 267 1.0 3.0 0.00 0.00 0.00 81 1018.2
20181015001533 47 267 0.0 0.0 0.00 0.00 0.00 80 1018.2